sensor_id;sensor_type;location;lat;lon;timestamp;pressure;altitude;pressure_sealevel;temperature;humidity
58771;BME280;44539;42.962;1.596;2023-01-31T07:40:12;98523.78;;;-3.00;100.00
58771;BME280;44539;42.962;1.596;2023-01-31T07:42:38;98530.47;;;-2.95;100.00
58771;BME280;44539;42.962;1.596;2023-01-31T07:45:04;98526.63;;;-2.84;100.00
58771;BME280;44539;42.962;1.596;2023-01-31T07:47:30;98526.81;;;-2.89;100.00
58771;BME280;44539;42.962;1.596;2023-01-31T07:49:56;98539.00;;;-2.91;100.00
58771;BME280;44539;42.962;1.596;2023-01-31T07:52:21;98541.66;;;-2.93;100.00
58771;BME280;44539;42.962;1.596;2023-01-31T07:54:47;98530.97;;;-2.85;100.00
58771;BME280;44539;42.962;1.596;2023-01-31T07:57:13;98542.03;;;-2.80;100.00
58771;BME280;44539;42.962;1.596;2023-01-31T07:59:42;98545.13;;;-2.92;100.00
58771;BME280;44539;42.962;1.596;2023-01-31T08:02:11;98546.44;;;-2.82;100.00
58771;BME280;44539;42.962;1.596;2023-01-31T08:04:55;98541.81;;;-2.74;100.00
58771;BME280;44539;42.962;1.596;2023-01-31T08:07:21;98535.81;;;-2.76;100.00
58771;BME280;44539;42.962;1.596;2023-01-31T08:09:46;98539.81;;;-2.89;100.00
58771;BME280;44539;42.962;1.596;2023-01-31T08:12:13;98542.22;;;-2.84;100.00
58771;BME280;44539;42.962;1.596;2023-01-31T08:14:39;98539.44;;;-2.80;100.00
58771;BME280;44539;42.962;1.596;2023-01-31T08:17:04;98545.25;;;-2.73;100.00
58771;BME280;44539;42.962;1.596;2023-01-31T08:19:33;98542.44;;;-2.67;100.00
58771;BME280;44539;42.962;1.596;2023-01-31T08:21:59;98542.09;;;-2.58;100.00
58771;BME280;44539;42.962;1.596;2023-01-31T08:24:25;98545.59;;;-2.59;100.00
58771;BME280;44539;42.962;1.596;2023-01-31T08:26:50;98533.94;;;-2.49;100.00
58771;BME280;44539;42.962;1.596;2023-01-31T08:29:15;98538.53;;;-2.55;100.00
58771;BME280;44539;42.962;1.596;2023-01-31T08:31:41;98533.13;;;-2.51;100.00
58771;BME280;44539;42.962;1.596;2023-01-31T08:34:07;98528.53;;;-2.44;100.00
58771;BME280;44539;42.962;1.596;2023-01-31T08:36:32;98519.88;;;-2.44;100.00
58771;BME280;44539;42.962;1.596;2023-01-31T08:38:58;98521.75;;;-2.48;100.00
58771;BME280;44539;42.962;1.596;2023-01-31T08:41:25;98525.34;;;-2.51;100.00
58771;BME280;44539;42.962;1.596;2023-01-31T08:43:51;98520.25;;;-2.54;100.00
58771;BME280;44539;42.962;1.596;2023-01-31T08:46:17;98521.16;;;-2.55;100.00
58771;BME280;44539;42.962;1.596;2023-01-31T08:48:43;98518.56;;;-2.55;100.00
58771;BME280;44539;42.962;1.596;2023-01-31T08:51:10;98521.47;;;-2.40;100.00
58771;BME280;44539;42.962;1.596;2023-01-31T08:53:37;98525.03;;;-2.43;100.00
58771;BME280;44539;42.962;1.596;2023-01-31T08:56:04;98529.63;;;-2.28;100.00
58771;BME280;44539;42.962;1.596;2023-01-31T08:58:31;98518.91;;;-2.20;100.00
58771;BME280;44539;42.962;1.596;2023-01-31T09:01:02;98528.13;;;-2.11;100.00
58771;BME280;44539;42.962;1.596;2023-01-31T09:03:27;98529.53;;;-2.04;100.00
58771;BME280;44539;42.962;1.596;2023-01-31T09:05:53;98516.66;;;-1.87;100.00
58771;BME280;44539;42.962;1.596;2023-01-31T09:08:18;98524.16;;;-1.79;100.00
58771;BME280;44539;42.962;1.596;2023-01-31T09:10:51;98518.56;;;-1.70;100.00
58771;BME280;44539;42.962;1.596;2023-01-31T09:13:17;98528.28;;;-1.53;100.00
58771;BME280;44539;42.962;1.596;2023-01-31T09:15:42;98525.25;;;-1.44;100.00
58771;BME280;44539;42.962;1.596;2023-01-31T09:18:08;98532.53;;;-1.31;100.00
58771;BME280;44539;42.962;1.596;2023-01-31T09:20:33;98531.66;;;-1.11;100.00
58771;BME280;44539;42.962;1.596;2023-01-31T09:22:59;98527.38;;;-0.93;100.00
58771;BME280;44539;42.962;1.596;2023-01-31T09:25:24;98526.91;;;-0.83;100.00
58771;BME280;44539;42.962;1.596;2023-01-31T09:27:51;98531.47;;;-0.69;100.00
58771;BME280;44539;42.962;1.596;2023-01-31T09:30:17;98530.00;;;-0.55;100.00
58771;BME280;44539;42.962;1.596;2023-01-31T09:32:43;98529.69;;;-0.49;100.00
58771;BME280;44539;42.962;1.596;2023-01-31T09:35:10;98527.28;;;-0.54;100.00
58771;BME280;44539;42.962;1.596;2023-01-31T09:37:35;98527.44;;;-0.57;100.00
58771;BME280;44539;42.962;1.596;2023-01-31T09:40:02;98522.84;;;-0.52;100.00
58771;BME280;44539;42.962;1.596;2023-01-31T09:42:33;98524.13;;;-0.42;100.00
58771;BME280;44539;42.962;1.596;2023-01-31T09:45:12;98519.31;;;-0.32;100.00
58771;BME280;44539;42.962;1.596;2023-01-31T09:47:46;98523.13;;;-0.39;100.00
58771;BME280;44539;42.962;1.596;2023-01-31T09:50:30;98518.59;;;-0.35;100.00
58771;BME280;44539;42.962;1.596;2023-01-31T09:52:58;98523.38;;;-0.26;100.00
58771;BME280;44539;42.962;1.596;2023-01-31T09:55:38;98516.97;;;-0.19;100.00
58771;BME280;44539;42.962;1.596;2023-01-31T10:00:45;98516.59;;;0.24;100.00
58771;BME280;44539;42.962;1.596;2023-01-31T10:08:38;98521.88;;;0.39;100.00
58771;BME280;44539;42.962;1.596;2023-01-31T10:11:10;98513.25;;;0.55;100.00
58771;BME280;44539;42.962;1.596;2023-01-31T10:13:55;98508.22;;;0.68;100.00
58771;BME280;44539;42.962;1.596;2023-01-31T10:16:48;98513.66;;;0.80;100.00
58771;BME280;44539;42.962;1.596;2023-01-31T10:19:25;98512.44;;;1.04;100.00
58771;BME280;44539;42.962;1.596;2023-01-31T10:21:59;98519.22;;;1.23;100.00
58771;BME280;44539;42.962;1.596;2023-01-31T10:24:35;98517.88;;;1.48;96.77
58771;BME280;44539;42.962;1.596;2023-01-31T10:27:04;98508.34;;;1.63;94.54
58771;BME280;44539;42.962;1.596;2023-01-31T10:29:41;98500.94;;;1.86;93.20
58771;BME280;44539;42.962;1.596;2023-01-31T10:32:25;98510.22;;;2.07;90.06
58771;BME280;44539;42.962;1.596;2023-01-31T10:35:19;98506.97;;;2.18;91.08
58771;BME280;44539;42.962;1.596;2023-01-31T10:37:49;98505.00;;;2.21;91.56
58771;BME280;44539;42.962;1.596;2023-01-31T10:40:21;98498.63;;;2.25;89.42
58771;BME280;44539;42.962;1.596;2023-01-31T10:42:57;98493.06;;;2.46;86.22
58771;BME280;44539;42.962;1.596;2023-01-31T10:45:27;98504.16;;;2.65;83.98
58771;BME280;44539;42.962;1.596;2023-01-31T10:51:01;98507.53;;;2.96;79.29
58771;BME280;44539;42.962;1.596;2023-01-31T10:56:34;98505.63;;;3.27;82.54
58771;BME280;44539;42.962;1.596;2023-01-31T10:59:04;98502.63;;;3.33;80.62
58771;BME280;44539;42.962;1.596;2023-01-31T11:01:33;98495.66;;;3.32;78.13
58771;BME280;44539;42.962;1.596;2023-01-31T11:04:00;98482.91;;;3.40;78.45
58771;BME280;44539;42.962;1.596;2023-01-31T11:06:26;98492.03;;;3.62;75.47
58771;BME280;44539;42.962;1.596;2023-01-31T11:09:00;98492.88;;;3.62;83.44
58771;BME280;44539;42.962;1.596;2023-01-31T11:11:27;98495.63;;;3.61;85.88
58771;BME280;44539;42.962;1.596;2023-01-31T11:14:02;98488.00;;;3.83;83.24
58771;BME280;44539;42.962;1.596;2023-01-31T11:16:31;98487.00;;;3.99;82.34
58771;BME280;44539;42.962;1.596;2023-01-31T11:19:01;98480.03;;;4.12;78.55
58771;BME280;44539;42.962;1.596;2023-01-31T11:21:30;98479.63;;;4.31;80.13
58771;BME280;44539;42.962;1.596;2023-01-31T11:24:25;98468.38;;;4.55;78.98
58771;BME280;44539;42.962;1.596;2023-01-31T11:27:04;98466.03;;;4.63;79.83
58771;BME280;44539;42.962;1.596;2023-01-31T11:29:38;98461.22;;;4.69;79.99
58771;BME280;44539;42.962;1.596;2023-01-31T11:32:15;98446.88;;;4.74;78.24
58771;BME280;44539;42.962;1.596;2023-01-31T11:35:00;98448.56;;;4.87;78.50
58771;BME280;44539;42.962;1.596;2023-01-31T11:37:31;98447.59;;;5.01;77.55
58771;BME280;44539;42.962;1.596;2023-01-31T11:42:24;98445.41;;;5.32;74.84
58771;BME280;44539;42.962;1.596;2023-01-31T11:45:03;98430.34;;;5.58;77.45
58771;BME280;44539;42.962;1.596;2023-01-31T11:47:51;98432.50;;;5.88;77.87
58771;BME280;44539;42.962;1.596;2023-01-31T11:50:39;98426.16;;;5.91;77.37
58771;BME280;44539;42.962;1.596;2023-01-31T11:53:20;98423.31;;;5.94;76.91
58771;BME280;44539;42.962;1.596;2023-01-31T11:55:48;98411.16;;;6.04;74.39
58771;BME280;44539;42.962;1.596;2023-01-31T11:58:29;98398.53;;;5.97;73.02
58771;BME280;44539;42.962;1.596;2023-01-31T12:00:58;98407.84;;;5.89;73.81
58771;BME280;44539;42.962;1.596;2023-01-31T12:03:25;98396.44;;;6.24;75.88
58771;BME280;44539;42.962;1.596;2023-01-31T12:06:05;98395.03;;;6.43;74.68
58771;BME280;44539;42.962;1.596;2023-01-31T12:08:40;98385.88;;;6.36;72.09
58771;BME280;44539;42.962;1.596;2023-01-31T12:13:48;98377.28;;;6.45;71.14
58771;BME280;44539;42.962;1.596;2023-01-31T12:16:18;98378.25;;;6.66;73.07
58771;BME280;44539;42.962;1.596;2023-01-31T12:18:49;98376.63;;;6.98;73.25
58771;BME280;44539;42.962;1.596;2023-01-31T12:25:07;98375.91;;;6.95;70.17
58771;BME280;44539;42.962;1.596;2023-01-31T12:27:45;98375.31;;;7.03;72.95
58771;BME280;44539;42.962;1.596;2023-01-31T12:30:24;98378.41;;;7.20;70.82
58771;BME280;44539;42.962;1.596;2023-01-31T12:35:43;98355.59;;;7.51;72.36
58771;BME280;44539;42.962;1.596;2023-01-31T12:54:18;98313.16;;;8.36;67.02
58771;BME280;44539;42.962;1.596;2023-01-31T12:57:10;98313.44;;;8.74;65.95
58771;BME280;44539;42.962;1.596;2023-01-31T13:00:00;98310.78;;;8.64;66.09
58771;BME280;44539;42.962;1.596;2023-01-31T13:02:39;98298.13;;;8.87;65.63
58771;BME280;44539;42.962;1.596;2023-01-31T13:05:23;98300.00;;;9.26;64.39
58771;BME280;44539;42.962;1.596;2023-01-31T13:08:06;98301.13;;;9.13;63.56
58771;BME280;44539;42.962;1.596;2023-01-31T13:11:08;98292.16;;;9.73;63.14
58771;BME280;44539;42.962;1.596;2023-01-31T13:13:47;98282.91;;;9.96;65.29
58771;BME280;44539;42.962;1.596;2023-01-31T13:16:25;98286.91;;;10.20;61.68
58771;BME280;44539;42.962;1.596;2023-01-31T13:18:55;98287.34;;;10.53;60.09
58771;BME280;44539;42.962;1.596;2023-01-31T13:21:27;98280.19;;;10.63;58.93
58771;BME280;44539;42.962;1.596;2023-01-31T13:24:16;98282.69;;;10.27;60.33
58771;BME280;44539;42.962;1.596;2023-01-31T13:26:49;98283.13;;;10.22;60.24
58771;BME280;44539;42.962;1.596;2023-01-31T13:31:49;98283.09;;;10.88;58.49
58771;BME280;44539;42.962;1.596;2023-01-31T13:34:28;98270.97;;;11.39;58.40
58771;BME280;44539;42.962;1.596;2023-01-31T13:37:04;98274.97;;;11.79;57.09
58771;BME280;44539;42.962;1.596;2023-01-31T13:39:35;98269.09;;;12.19;55.37
58771;BME280;44539;42.962;1.596;2023-01-31T13:42:02;98274.03;;;12.40;53.50
58771;BME280;44539;42.962;1.596;2023-01-31T13:44:28;98277.38;;;12.85;53.37
58771;BME280;44539;42.962;1.596;2023-01-31T13:47:01;98273.66;;;12.70;53.03
58771;BME280;44539;42.962;1.596;2023-01-31T13:49:41;98271.13;;;13.19;53.31
